Time,TemperatureF,DewpointF,PressureIn,WindDirection,WindDirectionDegrees,WindSpeedMPH,WindSpeedGustMPH,Humidity,HourlyPrecipIn,Conditions,Clouds,dailyrainin,SoftwareType,DateUTC
2013-02-09 08:38:00,26.9,23.5,29.82,North,0,0.0,0.0,87,0.00,,,0.00,WUHU216HW,2013-02-09 07:38:00,
2013-02-09 08:43:00,27.3,23.9,29.82,SE,135,0.0,1.7,87,0.00,,,0.00,WUHU216HW,2013-02-09 07:43:00,
2013-02-09 08:48:00,27.5,24.1,29.82,SE,135,0.0,1.7,87,0.00,,,0.00,WUHU216HW,2013-02-09 07:48:00,
2013-02-09 08:53:00,28.0,24.6,29.82,ESE,113,0.0,0.0,87,0.00,,,0.00,WUHU216HW,2013-02-09 07:53:00,
2013-02-09 08:58:00,28.2,24.8,29.83,SE,135,0.0,0.0,87,0.00,,,0.00,WUHU216HW,2013-02-09 07:58:00,
2013-02-09 09:03:00,28.4,25.1,29.83,SE,135,0.0,0.0,87,0.00,,,0.00,WUHU216HW,2013-02-09 08:03:00,
2013-02-09 09:08:00,28.7,25.3,29.83,SE,135,0.0,0.0,87,0.00,,,0.00,WUHU216HW,2013-02-09 08:08:00,
2013-02-09 09:13:00,29.1,25.7,29.83,SE,135,0.0,0.0,87,0.00,,,0.00,WUHU216HW,2013-02-09 08:13:00,
2013-02-09 09:18:00,29.4,25.8,29.83,ESE,113,0.0,0.0,86,0.00,,,0.00,WUHU216HW,2013-02-09 08:18:00,
2013-02-09 09:23:00,29.8,26.1,29.83,ESE,113,0.0,0.0,86,0.00,,,0.00,WUHU216HW,2013-02-09 08:23:00,
2013-02-09 09:28:00,30.0,26.0,29.83,ESE,113,0.0,0.0,85,0.00,,,0.00,WUHU216HW,2013-02-09 08:28:00,
2013-02-09 09:33:00,30.3,26.4,29.83,ESE,113,0.0,0.0,85,0.00,,,0.00,WUHU216HW,2013-02-09 08:33:00,
2013-02-09 09:38:00,30.7,26.4,29.83,SSE,158,0.0,0.0,84,0.00,,,0.00,WUHU216HW,2013-02-09 08:38:00,
2013-02-09 09:43:00,31.1,27.0,29.83,SSE,158,0.0,0.0,84,0.00,,,0.00,WUHU216HW,2013-02-09 08:43:00,
2013-02-09 09:48:00,31.6,27.1,29.83,East,90,0.0,0.0,83,0.00,,,0.00,WUHU216HW,2013-02-09 08:48:00,
2013-02-09 09:53:00,31.8,26.9,29.83,SE,135,0.0,0.0,82,0.00,,,0.00,WUHU216HW,2013-02-09 08:53:00,
2013-02-09 09:58:00,31.8,26.7,29.84,ESE,113,0.0,0.0,81,0.00,,,0.00,WUHU216HW,2013-02-09 08:58:00,
2013-02-09 10:03:00,31.8,26.7,29.84,SSE,158,0.0,0.0,81,0.00,,,0.00,WUHU216HW,2013-02-09 09:03:00,
2013-02-09 10:08:00,32.1,26.7,29.84,East,90,0.0,0.0,80,0.00,,,0.00,WUHU216HW,2013-02-09 09:08:00,
2013-02-09 10:13:00,32.1,26.4,29.83,ENE,68,0.0,0.0,79,0.00,,,0.00,WUHU216HW,2013-02-09 09:13:00,
2013-02-09 10:18:00,32.5,26.7,29.83,South,180,0.0,0.0,79,0.00,,,0.00,WUHU216HW,2013-02-09 09:18:00,
2013-02-09 10:23:00,32.9,26.7,29.83,SE,135,2.2,2.2,78,0.00,,,0.00,WUHU216HW,2013-02-09 09:23:00,
2013-02-09 10:28:00,32.9,26.4,29.83,NE,45,0.0,2.2,77,0.00,,,0.00,WUHU216HW,2013-02-09 09:28:00,
2013-02-09 10:33:00,33.2,26.4,29.83,North,0,2.0,2.0,76,0.00,,,0.00,WUHU216HW,2013-02-09 09:33:00,
2013-02-09 10:38:00,33.4,26.2,29.83,East,90,0.0,2.2,75,0.00,,,0.00,WUHU216HW,2013-02-09 09:38:00,
2013-02-09 10:43:00,33.6,26.4,29.84,East,90,1.7,3.1,75,0.00,,,0.00,WUHU216HW,2013-02-09 09:43:00,
2013-02-09 10:48:00,33.8,26.2,29.84,ENE,68,3.1,3.8,74,0.00,,,0.00,WUHU216HW,2013-02-09 09:48:00,
2013-02-09 10:53:00,33.8,26.2,29.84,North,0,3.8,4.0,74,0.00,,,0.00,WUHU216HW,2013-02-09 09:53:00,
2013-02-09 10:58:00,33.8,25.6,29.84,NE,45,3.3,4.0,72,0.00,,,0.00,WUHU216HW,2013-02-09 09:58:00,
2013-02-09 11:03:00,33.9,25.4,29.84,NNE,23,0.0,3.8,71,0.00,,,0.00,WUHU216HW,2013-02-09 10:03:00,
2013-02-09 11:08:00,34.1,25.6,29.84,NE,45,0.0,3.8,71,0.00,,,0.00,WUHU216HW,2013-02-09 10:08:00,
2013-02-09 11:13:00,33.9,25.1,29.84,NNE,23,0.0,3.8,70,0.00,,,0.00,WUHU216HW,2013-02-09 10:13:00,
2013-02-09 11:18:00,34.1,25.3,29.84,ENE,68,5.1,5.1,70,0.00,,,0.00,WUHU216HW,2013-02-09 10:18:00,
2013-02-09 11:24:00,34.3,25.1,29.84,NE,45,0.0,5.1,69,0.00,,,0.00,WUHU216HW,2013-02-09 10:24:00,
2013-02-09 11:29:00,34.3,24.8,29.84,ENE,68,0.0,6.9,68,0.00,,,0.00,WUHU216HW,2013-02-09 10:29:00,
2013-02-09 11:34:00,34.3,24.8,29.84,North,0,7.1,7.1,68,0.00,,,0.00,WUHU216HW,2013-02-09 10:34:00,
2013-02-09 11:39:00,34.3,24.8,29.84,ENE,68,1.1,7.1,68,0.00,,,0.00,WUHU216HW,2013-02-09 10:39:00,
2013-02-09 11:44:00,34.3,24.4,29.84,NNW,338,0.0,4.2,67,0.00,,,0.00,WUHU216HW,2013-02-09 10:44:00,
2013-02-09 11:49:00,34.5,24.6,29.84,East,90,1.1,5.8,67,0.00,,,0.00,WUHU216HW,2013-02-09 10:49:00,
2013-02-09 11:54:00,34.7,25.1,29.84,ESE,113,2.6,6.0,68,0.00,,,0.00,WUHU216HW,2013-02-09 10:54:00,
2013-02-09 11:59:00,34.8,24.9,29.84,NE,45,0.0,6.0,67,0.00,,,0.00,WUHU216HW,2013-02-09 10:59:00,
2013-02-09 12:04:00,34.8,24.9,29.84,North,0,5.1,5.1,67,0.00,,,0.00,WUHU216HW,2013-02-09 11:04:00,
2013-02-09 12:09:00,34.5,23.9,29.84,North,0,0.0,5.1,65,0.00,,,0.00,WUHU216HW,2013-02-09 11:09:00,
2013-02-09 12:14:00,34.5,24.6,29.84,North,0,1.7,3.8,67,0.00,,,0.00,WUHU216HW,2013-02-09 11:14:00,
2013-02-09 12:19:00,34.7,24.4,29.84,ENE,68,4.4,4.4,66,0.00,,,0.00,WUHU216HW,2013-02-09 11:19:00,
2013-02-09 12:24:00,34.8,25.1,29.84,ENE,68,1.7,4.9,67,0.00,,,0.00,WUHU216HW,2013-02-09 11:24:00,
2013-02-09 12:29:00,34.8,24.9,29.84,North,0,0.0,4.9,67,0.00,,,0.00,WUHU216HW,2013-02-09 11:29:00,
2013-02-09 12:34:00,34.5,24.2,29.84,NE,45,0.0,2.0,66,0.00,,,0.00,WUHU216HW,2013-02-09 11:34:00,
2013-02-09 12:39:00,34.8,24.9,29.84,ENE,68,1.3,2.0,67,0.00,,,0.00,WUHU216HW,2013-02-09 11:39:00,
2013-02-09 12:44:00,35.2,25.3,29.84,ENE,68,1.5,5.5,67,0.00,,,0.00,WUHU216HW,2013-02-09 11:44:00,
2013-02-09 12:49:00,35.4,25.3,29.84,ENE,68,0.0,5.5,67,0.00,,,0.00,WUHU216HW,2013-02-09 11:49:00,
2013-02-09 12:54:00,35.4,25.1,29.84,NE,45,0.6,3.8,66,0.00,,,0.00,WUHU216HW,2013-02-09 11:54:00,
2013-02-09 12:59:00,35.2,24.9,29.84,NE,45,1.3,4.0,66,0.00,,,0.00,WUHU216HW,2013-02-09 11:59:00,
2013-02-09 13:04:00,35.2,24.9,29.85,ESE,113,7.3,7.3,66,0.00,,,0.00,WUHU216HW,2013-02-09 12:04:00,
2013-02-09 13:09:00,34.8,24.6,29.85,East,90,3.5,7.3,66,0.00,,,0.00,WUHU216HW,2013-02-09 12:09:00,
2013-02-09 13:14:00,34.8,24.9,29.85,East,90,2.4,5.5,67,0.00,,,0.00,WUHU216HW,2013-02-09 12:14:00,
2013-02-09 13:19:00,34.8,24.9,29.85,ESE,113,0.0,4.9,67,0.00,,,0.00,WUHU216HW,2013-02-09 12:19:00,
2013-02-09 13:24:00,34.5,24.2,29.85,East,90,0.0,4.2,66,0.00,,,0.00,WUHU216HW,2013-02-09 12:24:00,
2013-02-09 13:29:00,34.3,24.4,29.84,NNW,338,0.6,2.0,67,0.00,,,0.00,WUHU216HW,2013-02-09 12:29:00,
2013-02-09 13:34:00,34.3,24.4,29.85,North,0,3.8,3.8,67,0.00,,,0.00,WUHU216HW,2013-02-09 12:34:00,
2013-02-09 13:39:00,33.6,24.0,29.85,NNW,338,0.0,3.8,68,0.00,,,0.00,WUHU216HW,2013-02-09 12:39:00,
2013-02-09 13:44:00,33.4,24.2,29.85,NNE,23,0.0,3.8,69,0.00,,,0.00,WUHU216HW,2013-02-09 12:44:00,
2013-02-09 13:49:00,33.4,24.2,29.85,NE,45,0.0,0.0,69,0.00,,,0.00,WUHU216HW,2013-02-09 12:49:00,
2013-02-09 13:54:00,33.4,24.6,29.85,East,90,1.5,4.2,70,0.00,,,0.00,WUHU216HW,2013-02-09 12:54:00,
2013-02-09 13:59:00,32.9,24.1,29.85,NE,45,0.0,4.2,70,0.00,,,0.00,WUHU216HW,2013-02-09 12:59:00,
2013-02-09 14:04:00,32.7,24.3,29.85,North,0,2.9,4.2,71,0.00,,,0.00,WUHU216HW,2013-02-09 13:04:00,
2013-02-09 14:09:00,32.5,24.4,29.85,NE,45,0.0,3.3,72,0.00,,,0.00,WUHU216HW,2013-02-09 13:09:00,
2013-02-09 14:14:00,32.5,24.8,29.85,North,0,0.8,2.0,73,0.00,,,0.00,WUHU216HW,2013-02-09 13:14:00,
2013-02-09 14:19:00,32.5,24.8,29.85,North,0,0.0,0.8,73,0.00,,,0.00,WUHU216HW,2013-02-09 13:19:00,
2013-02-09 14:24:00,32.3,25.1,29.86,NNE,23,0.0,0.0,74,0.00,,,0.00,WUHU216HW,2013-02-09 13:24:00,
2013-02-09 14:29:00,32.5,25.1,29.86,NNW,338,0.0,0.0,74,0.00,,,0.00,WUHU216HW,2013-02-09 13:29:00,
2013-02-09 14:34:00,32.5,25.1,29.86,North,0,1.1,2.0,74,0.00,,,0.00,WUHU216HW,2013-02-09 13:34:00,
2013-02-09 14:39:00,32.1,24.8,29.86,NNW,338,2.0,2.2,74,0.00,,,0.00,WUHU216HW,2013-02-09 13:39:00,
2013-02-09 14:44:00,32.1,25.1,29.86,NNE,23,0.0,2.2,75,0.00,,,0.00,WUHU216HW,2013-02-09 13:44:00,
2013-02-09 14:49:00,31.8,24.8,29.86,North,0,2.4,2.9,75,0.00,,,0.00,WUHU216HW,2013-02-09 13:49:00,
2013-02-09 14:54:00,31.8,25.1,29.86,NW,315,0.0,2.9,76,0.00,,,0.00,WUHU216HW,2013-02-09 13:54:00,
2013-02-09 14:59:00,31.6,24.9,29.86,North,0,0.0,3.1,76,0.00,,,0.00,WUHU216HW,2013-02-09 13:59:00,
2013-02-09 15:04:00,31.6,24.9,29.86,North,0,2.9,3.1,76,0.00,,,0.00,WUHU216HW,2013-02-09 14:04:00,
2013-02-09 15:09:00,31.2,24.5,29.86,NW,315,0.0,2.9,76,0.00,,,0.00,WUHU216HW,2013-02-09 14:09:00,
2013-02-09 15:14:00,31.2,24.9,29.86,WNW,293,0.0,2.9,77,0.00,,,0.00,WUHU216HW,2013-02-09 14:14:00,
2013-02-09 15:19:00,31.2,24.9,29.86,NNW,338,2.0,2.9,77,0.00,,,0.00,WUHU216HW,2013-02-09 14:19:00,
2013-02-09 15:24:00,31.1,25.0,29.86,SE,135,0.0,2.6,78,0.00,,,0.00,WUHU216HW,2013-02-09 14:24:00,
2013-02-09 15:29:00,30.9,24.8,29.86,North,0,0.6,2.6,78,0.00,,,0.00,WUHU216HW,2013-02-09 14:29:00,
2013-02-09 15:34:00,30.9,24.8,29.86,North,0,0.0,2.6,78,0.00,,,0.00,WUHU216HW,2013-02-09 14:34:00,
2013-02-09 15:39:00,30.9,24.8,29.86,NNE,23,0.0,2.0,78,0.00,,,0.00,WUHU216HW,2013-02-09 14:39:00,
2013-02-09 15:44:00,30.9,24.8,29.86,NW,315,0.0,2.0,78,0.00,,,0.00,WUHU216HW,2013-02-09 14:44:00,
2013-02-09 15:50:00,30.9,25.1,29.86,NW,315,0.0,0.0,79,0.00,,,0.00,WUHU216HW,2013-02-09 14:50:00,
2013-02-09 15:55:00,30.9,25.1,29.86,NW,315,0.0,0.8,79,0.00,,,0.00,WUHU216HW,2013-02-09 14:55:00,
2013-02-09 16:00:00,30.9,25.1,29.85,North,0,0.0,0.8,79,0.00,,,0.00,WUHU216HW,2013-02-09 15:00:00,
2013-02-09 16:05:00,30.9,25.1,29.86,NNE,23,0.0,0.0,79,0.00,,,0.00,WUHU216HW,2013-02-09 15:05:00,
2013-02-09 16:10:00,30.9,25.1,29.86,NW,315,0.0,1.5,79,0.00,,,0.00,WUHU216HW,2013-02-09 15:10:00,
2013-02-09 16:15:00,30.7,25.0,29.86,NNE,23,0.0,1.5,79,0.00,,,0.00,WUHU216HW,2013-02-09 15:15:00,
2013-02-09 16:20:00,30.7,25.0,29.86,North,0,0.0,1.7,79,0.00,,,0.00,WUHU216HW,2013-02-09 15:20:00,
2013-02-09 16:25:00,30.7,25.3,29.86,North,0,0.0,1.7,80,0.00,,,0.00,WUHU216HW,2013-02-09 15:25:00,
2013-02-09 16:30:00,30.7,25.3,29.87,NNE,23,0.0,2.4,80,0.00,,,0.00,WUHU216HW,2013-02-09 15:30:00,
2013-02-09 16:35:00,30.5,25.1,29.88,North,0,0.0,2.4,80,0.00,,,0.00,WUHU216HW,2013-02-09 15:35:00,
2013-02-09 16:40:00,30.3,24.9,29.89,NW,315,1.1,1.1,80,0.00,,,0.00,WUHU216HW,2013-02-09 15:40:00,
2013-02-09 16:45:00,30.3,25.2,29.89,North,0,2.0,2.0,81,0.00,,,0.00,WUHU216HW,2013-02-09 15:45:00,
2013-02-09 16:50:00,30.3,25.2,29.89,North,0,0.0,2.0,81,0.00,,,0.00,WUHU216HW,2013-02-09 15:50:00,
2013-02-09 16:55:00,30.3,25.2,29.90,ENE,68,0.0,0.8,81,0.00,,,0.00,WUHU216HW,2013-02-09 15:55:00,
2013-02-09 17:00:00,30.3,25.2,29.91,NNW,338,0.6,2.2,81,0.00,,,0.00,WUHU216HW,2013-02-09 16:00:00,
2013-02-09 17:05:00,30.2,25.0,29.91,NNW,338,2.4,3.5,81,0.00,,,0.00,WUHU216HW,2013-02-09 16:05:00,
2013-02-09 17:10:00,30.0,24.9,29.91,North,0,0.0,3.5,81,0.00,,,0.00,WUHU216HW,2013-02-09 16:10:00,
2013-02-09 17:15:00,30.0,24.9,29.91,North,0,0.0,2.0,81,0.00,,,0.00,WUHU216HW,2013-02-09 16:15:00,
2013-02-09 17:20:00,30.0,24.9,29.91,NNW,338,0.0,0.0,81,0.00,,,0.00,WUHU216HW,2013-02-09 16:20:00,
2013-02-09 17:25:00,30.0,25.0,29.92,NNW,338,0.0,0.0,82,0.00,,,0.00,WUHU216HW,2013-02-09 16:25:00,
2013-02-09 17:30:00,29.8,25.3,29.92,NNW,338,0.0,0.0,83,0.00,,,0.00,WUHU216HW,2013-02-09 16:30:00,
2013-02-09 17:35:00,29.6,25.3,29.92,NNW,338,0.0,0.0,83,0.00,,,0.00,WUHU216HW,2013-02-09 16:35:00,
2013-02-09 17:40:00,29.6,25.1,29.93,NNW,338,0.0,0.0,83,0.00,,,0.00,WUHU216HW,2013-02-09 16:40:00,
2013-02-09 17:45:00,29.4,24.9,29.93,NNW,338,0.0,0.0,83,0.00,,,0.00,WUHU216HW,2013-02-09 16:45:00,
2013-02-09 17:50:00,29.4,24.9,29.93,NNE,23,0.0,0.0,83,0.00,,,0.00,WUHU216HW,2013-02-09 16:50:00,
2013-02-09 17:55:00,29.4,24.9,29.93,SE,135,0.0,0.0,83,0.00,,,0.00,WUHU216HW,2013-02-09 16:55:00,
2013-02-09 18:00:00,29.6,25.1,29.94,West,270,0.0,0.0,83,0.00,,,0.00,WUHU216HW,2013-02-09 17:00:00,
2013-02-09 18:05:00,29.4,25.2,29.94,North,0,0.0,0.0,84,0.00,,,0.00,WUHU216HW,2013-02-09 17:05:00,
2013-02-09 18:10:00,29.4,24.9,29.94,SE,135,0.0,0.0,83,0.00,,,0.00,WUHU216HW,2013-02-09 17:10:00,
2013-02-09 18:15:00,29.4,25.2,29.94,ENE,68,0.0,0.0,84,0.00,,,0.00,WUHU216HW,2013-02-09 17:15:00,
2013-02-09 18:20:00,29.4,25.2,29.94,ESE,113,0.0,0.0,84,0.00,,,0.00,WUHU216HW,2013-02-09 17:20:00,
2013-02-09 18:25:00,29.4,25.2,29.94,ESE,113,0.0,0.0,84,0.00,,,0.00,WUHU216HW,2013-02-09 17:25:00,
2013-02-09 18:30:00,29.4,25.2,29.95,SE,135,0.0,0.0,84,0.00,,,0.00,WUHU216HW,2013-02-09 17:30:00,
2013-02-09 18:35:00,29.4,25.2,29.94,ESE,113,0.0,0.0,84,0.00,,,0.00,WUHU216HW,2013-02-09 17:35:00,
2013-02-09 18:40:00,29.3,25.3,29.95,ESE,113,0.0,0.0,85,0.00,,,0.00,WUHU216HW,2013-02-09 17:40:00,
2013-02-09 18:45:00,29.3,25.3,29.95,East,90,0.0,0.0,85,0.00,,,0.00,WUHU216HW,2013-02-09 17:45:00,
2013-02-09 18:50:00,29.3,25.3,29.95,ESE,113,0.0,0.0,85,0.00,,,0.00,WUHU216HW,2013-02-09 17:50:00,
2013-02-09 18:55:00,29.1,25.1,29.96,ESE,113,0.0,0.0,85,0.00,,,0.00,WUHU216HW,2013-02-09 17:55:00,
2013-02-09 19:00:00,29.1,25.1,29.95,SE,135,0.0,0.0,85,0.00,,,0.00,WUHU216HW,2013-02-09 18:00:00,
2013-02-09 19:05:00,29.1,25.1,29.95,SE,135,0.0,0.0,85,0.00,,,0.00,WUHU216HW,2013-02-09 18:05:00,
2013-02-09 19:11:00,28.9,24.9,29.95,NE,45,0.0,0.0,85,0.00,,,0.00,WUHU216HW,2013-02-09 18:11:00,
2013-02-09 19:16:00,28.9,25.2,29.95,NNW,338,0.0,0.0,86,0.00,,,0.00,WUHU216HW,2013-02-09 18:16:00,
2013-02-09 19:21:00,28.9,25.2,29.95,North,0,0.0,0.0,86,0.00,,,0.00,WUHU216HW,2013-02-09 18:21:00,
2013-02-09 19:26:00,28.9,25.2,29.95,NNW,338,0.0,0.0,86,0.00,,,0.00,WUHU216HW,2013-02-09 18:26:00,
2013-02-09 19:31:00,28.9,25.2,29.95,NW,315,0.0,0.0,86,0.00,,,0.00,WUHU216HW,2013-02-09 18:31:00,
2013-02-09 19:36:00,28.9,25.2,29.95,NW,315,0.0,0.0,86,0.00,,,0.00,WUHU216HW,2013-02-09 18:36:00,
2013-02-09 19:41:00,28.7,25.0,29.95,NNW,338,0.0,0.0,86,0.00,,,0.00,WUHU216HW,2013-02-09 18:41:00,
2013-02-09 19:46:00,28.9,25.5,29.95,NW,315,0.0,0.0,87,0.00,,,0.00,WUHU216HW,2013-02-09 18:46:00,
2013-02-09 19:51:00,28.7,25.3,29.95,NNW,338,0.0,0.0,87,0.00,,,0.00,WUHU216HW,2013-02-09 18:51:00,
2013-02-09 19:56:00,28.9,25.5,29.95,North,0,0.0,0.0,87,0.00,,,0.00,WUHU216HW,2013-02-09 18:56:00,
2013-02-09 20:01:00,28.9,25.5,29.95,NW,315,0.0,0.0,87,0.00,,,0.00,WUHU216HW,2013-02-09 19:01:00,
2013-02-09 20:06:00,28.7,25.3,29.95,NNW,338,0.0,0.0,87,0.00,,,0.00,WUHU216HW,2013-02-09 19:06:00,
2013-02-09 20:11:00,28.7,25.3,29.95,WNW,293,0.0,0.0,87,0.00,,,0.00,WUHU216HW,2013-02-09 19:11:00,
2013-02-09 20:16:00,28.7,25.3,29.94,WNW,293,0.0,0.0,87,0.00,,,0.00,WUHU216HW,2013-02-09 19:16:00,
2013-02-09 20:21:00,28.9,25.5,29.95,SSW,203,0.0,0.0,87,0.00,,,0.00,WUHU216HW,2013-02-09 19:21:00,
2013-02-09 20:26:00,28.9,25.5,29.95,WNW,293,0.0,0.0,87,0.00,,,0.00,WUHU216HW,2013-02-09 19:26:00,
2013-02-09 20:31:00,28.7,25.3,29.95,West,270,0.0,0.0,87,0.00,,,0.00,WUHU216HW,2013-02-09 19:31:00,
2013-02-09 20:36:00,28.7,25.3,29.95,South,180,0.0,0.0,87,0.00,,,0.00,WUHU216HW,2013-02-09 19:36:00,
2013-02-09 20:41:00,28.7,25.3,29.95,SW,225,0.0,0.0,87,0.00,,,0.00,WUHU216HW,2013-02-09 19:41:00,
2013-02-09 20:46:00,28.5,25.1,29.96,NNW,338,0.0,0.0,87,0.00,,,0.00,WUHU216HW,2013-02-09 19:46:00,
2013-02-09 20:51:00,28.5,25.1,29.95,East,90,0.0,0.0,87,0.00,,,0.00,WUHU216HW,2013-02-09 19:51:00,
2013-02-09 20:56:00,28.7,25.3,29.95,NNW,338,2.9,3.5,87,0.00,,,0.00,WUHU216HW,2013-02-09 19:56:00,
2013-02-09 21:01:00,28.7,25.3,29.94,NNW,338,2.2,3.8,87,0.00,,,0.00,WUHU216HW,2013-02-09 20:01:00,
2013-02-09 21:06:00,28.9,25.2,29.94,North,0,0.0,5.1,86,0.00,,,0.00,WUHU216HW,2013-02-09 20:06:00,
2013-02-09 21:11:00,28.9,25.2,29.94,NNW,338,3.5,5.1,86,0.00,,,0.00,WUHU216HW,2013-02-09 20:11:00,
2013-02-09 21:16:00,28.9,25.2,29.94,NW,315,4.9,4.9,86,0.00,,,0.00,WUHU216HW,2013-02-09 20:16:00,
2013-02-09 21:21:00,28.7,25.0,29.94,NNW,338,1.5,4.9,86,0.00,,,0.00,WUHU216HW,2013-02-09 20:21:00,
2013-02-09 21:26:00,28.7,25.0,29.94,NNW,338,0.0,1.5,86,0.00,,,0.00,WUHU216HW,2013-02-09 20:26:00,
2013-02-09 21:31:00,28.7,25.0,29.94,North,0,1.3,1.3,86,0.00,,,0.00,WUHU216HW,2013-02-09 20:31:00,
2013-02-09 21:36:00,28.7,25.0,29.93,North,0,0.0,3.5,86,0.00,,,0.00,WUHU216HW,2013-02-09 20:36:00,
2013-02-09 21:41:00,28.7,24.9,29.92,NNW,338,0.0,3.5,86,0.00,,,0.00,WUHU216HW,2013-02-09 20:41:00,
2013-02-09 21:46:00,28.5,24.9,29.92,North,0,0.8,1.3,86,0.00,,,0.00,WUHU216HW,2013-02-09 20:46:00,
2013-02-09 21:51:00,28.5,24.9,29.91,North,0,0.8,4.9,86,0.00,,,0.00,WUHU216HW,2013-02-09 20:51:00,
2013-02-09 21:56:00,28.5,24.6,29.91,NNW,338,0.0,4.9,85,0.00,,,0.00,WUHU216HW,2013-02-09 20:56:00,
2013-02-09 22:01:00,28.4,24.4,29.91,NW,315,0.0,2.2,85,0.00,,,0.00,WUHU216HW,2013-02-09 21:01:00,